Time;durP1;ratioP1;P1;durP2;ratioP2;P2;SDS_P1;SDS_P2;PMS_P1;PMS_P2;Temp;Humidity;BMP_temperature;BMP_pressure;BME280_temperature;BME280_humidity;BME280_pressure;Samples;Min_cycle;Max_cycle;Signal;HPM_P1;HPM_P2
2024/01/03 00:02:22;;;;;;;1.57;1.10;;;11.40;98.20;;;;;;6103401;23;20453;-78
2024/01/03 00:04:49;;;;;;;1.60;1.00;;;11.40;98.20;;;;;;6118636;23;20448;-78
2024/01/03 00:07:16;;;;;;;1.53;1.00;;;11.40;98.20;;;;;;6105922;23;20469;-78
2024/01/03 00:09:45;;;;;;;1.60;1.10;;;11.40;98.20;;;;;;6120366;23;20505;-77
2024/01/03 00:12:22;;;;;;;1.57;1.10;;;11.30;98.20;;;;;;6103869;23;20540;-78
2024/01/03 00:14:49;;;;;;;1.60;1.10;;;11.30;98.20;;;;;;6117086;23;20437;-78
2024/01/03 00:17:16;;;;;;;1.57;1.00;;;11.30;98.20;;;;;;6102578;23;20449;-78
2024/01/03 00:19:44;;;;;;;1.57;1.10;;;11.20;98.20;;;;;;6117525;23;20450;-78
2024/01/03 00:22:13;;;;;;;1.60;1.10;;;11.20;98.20;;;;;;6102211;23;20450;-79
2024/01/03 00:24:48;;;;;;;1.60;1.10;;;11.20;98.20;;;;;;6126661;23;20504;-78
2024/01/03 00:27:16;;;;;;;1.60;1.10;;;11.20;98.20;;;;;;6102551;23;20456;-78
2024/01/03 00:29:53;;;;;;;1.57;1.10;;;11.20;98.20;;;;;;6118313;23;20417;-79
2024/01/03 00:32:54;;;;;;;1.60;1.10;;;11.10;98.20;;;;;;6095096;23;21058;-84
2024/01/03 00:35:21;;;;;;;1.60;1.10;;;11.10;98.20;;;;;;6074210;23;20427;-80
2024/01/03 00:37:58;;;;;;;1.60;1.03;;;11.10;98.20;;;;;;6071070;23;20489;-80
2024/01/03 00:40:52;;;;;;;1.60;1.10;;;11.10;98.20;;;;;;6043472;23;20500;-80
2024/01/03 00:43:18;;;;;;;1.60;1.10;;;11.00;98.20;;;;;;6010464;23;20432;-80
2024/01/03 00:45:59;;;;;;;1.53;1.00;;;11.00;98.20;;;;;;6046256;23;20906;-83
2024/01/03 00:48:52;;;;;;;1.57;1.10;;;11.00;98.20;;;;;;6051028;23;20455;-84
2024/01/03 00:51:22;;;;;;;1.57;1.10;;;11.10;98.20;;;;;;6048336;23;20437;-83
2024/01/03 00:54:15;;;;;;;1.50;1.00;;;11.10;98.20;;;;;;6082328;23;20621;-83
2024/01/03 00:56:59;;;;;;;1.57;1.07;;;11.10;98.20;;;;;;6071971;23;20455;-82
2024/01/03 00:59:48;;;;;;;;;;;;;;;;;;;;;
2024/01/03 01:02:23;;;;;;;1.60;1.10;;;11.10;98.20;;;;;;6074152;23;20459;-83
2024/01/03 01:04:56;;;;;;;1.53;1.10;;;11.10;98.20;;;;;;6073318;23;20403;-81
2024/01/03 01:07:29;;;;;;;1.57;1.10;;;11.10;98.20;;;;;;6072577;23;20939;-83
2024/01/03 01:15:37;;;;;;;1.57;1.10;;;11.10;98.20;;;;;;6057366;23;20503;-84
2024/01/03 01:18:22;;;;;;;1.60;1.10;;;11.10;98.20;;;;;;6078220;23;20478;-83
2024/01/03 01:23:47;;;;;;;1.60;1.10;;;11.10;98.20;;;;;;6084743;23;20443;-84
2024/01/03 01:26:26;;;;;;;1.57;1.10;;;11.10;98.20;;;;;;6058376;23;20505;-82
2024/01/03 01:32:07;;;;;;;1.60;1.20;;;11.00;98.20;;;;;;6065724;23;20458;-82
2024/01/03 01:37:33;;;;;;;1.60;1.20;;;11.10;98.20;;;;;;6080902;23;20447;-81
2024/01/03 01:39:59;;;;;;;1.60;1.10;;;11.00;98.20;;;;;;6107076;23;20456;-80
2024/01/03 01:42:33;;;;;;;1.53;1.07;;;11.00;98.20;;;;;;6086311;23;20969;-83
2024/01/03 01:45:16;;;;;;;1.60;1.10;;;11.00;98.20;;;;;;6107781;23;20418;-84
2024/01/03 01:48:02;;;;;;;1.60;1.10;;;11.00;98.20;;;;;;6085602;23;20514;-84
2024/01/03 01:50:46;;;;;;;1.60;1.17;;;11.00;98.20;;;;;;6109177;23;20516;-83
2024/01/03 01:56:18;;;;;;;1.57;1.07;;;11.00;98.20;;;;;;6009312;23;20465;-84
2024/01/03 01:58:58;;;;;;;1.60;1.00;;;11.00;98.20;;;;;;6107879;23;20453;-82
2024/01/03 02:01:43;;;;;;;1.60;1.10;;;11.10;98.20;;;;;;6091343;23;20450;-84
2024/01/03 02:04:13;;;;;;;1.60;1.20;;;11.10;98.20;;;;;;6107378;23;20426;-83
2024/01/03 02:06:59;;;;;;;;;;;;;;;;;;;;;
2024/01/03 02:09:29;;;;;;;1.57;1.10;;;11.10;98.20;;;;;;6110051;23;20417;-85
2024/01/03 02:12:14;;;;;;;1.50;1.10;;;11.10;98.20;;;;;;6085202;23;21159;-85
2024/01/03 02:15:12;;;;;;;1.60;1.10;;;11.10;98.20;;;;;;6104230;23;20431;-84
2024/01/03 02:17:44;;;;;;;1.53;1.10;;;11.10;98.20;;;;;;6087226;23;20939;-84
2024/01/03 02:20:34;;;;;;;1.60;1.10;;;11.20;98.20;;;;;;6110822;23;20604;-82
2024/01/03 02:25:59;;;;;;;1.60;1.20;;;11.20;98.20;;;;;;6092928;23;20434;-82
2024/01/03 02:28:39;;;;;;;1.57;1.10;;;11.10;98.20;;;;;;6107480;23;20430;-81
2024/01/03 02:31:52;;;;;;;1.53;1.10;;;11.10;98.20;;;;;;6083318;23;20410;-84
2024/01/03 02:34:32;;;;;;;1.60;1.10;;;11.10;98.20;;;;;;6105635;23;20427;-82
2024/01/03 02:37:09;;;;;;;1.53;1.10;;;11.00;98.20;;;;;;6079164;23;20446;-81
2024/01/03 02:39:59;;;;;;;1.60;1.10;;;11.00;98.20;;;;;;6109923;23;20449;-82
2024/01/03 02:42:26;;;;;;;1.57;1.10;;;11.00;98.20;;;;;;6082215;23;20505;-82
2024/01/03 02:45:14;;;;;;;1.60;1.10;;;10.90;98.20;;;;;;6108091;23;20418;-84
2024/01/03 02:47:49;;;;;;;1.60;1.20;;;10.90;98.20;;;;;;6086035;23;20442;-84
2024/01/03 02:50:54;;;;;;;1.53;1.10;;;10.90;98.20;;;;;;6101253;23;20674;-84
2024/01/03 02:53:22;;;;;;;1.60;1.10;;;10.90;98.20;;;;;;6031733;23;20439;-83
2024/01/03 02:56:12;;;;;;;1.53;1.10;;;10.90;98.20;;;;;;6079207;23;20767;-82
2024/01/03 02:59:40;;;;;;;1.53;1.00;;;10.90;98.20;;;;;;6082908;23;20431;-85
2024/01/03 03:02:12;;;;;;;1.60;1.10;;;10.90;98.20;;;;;;6080292;23;20979;-83
2024/01/03 03:04:50;;;;;;;2.40;2.20;;;10.90;98.20;;;;;;6110514;23;20427;-85
2024/01/03 03:07:17;;;;;;;1.57;1.10;;;10.90;98.20;;;;;;6089127;23;20454;-83
2024/01/03 03:10:02;;;;;;;1.50;1.10;;;10.90;98.20;;;;;;6110832;23;20411;-83
2024/01/03 03:12:47;;;;;;;1.50;1.00;;;11.00;98.20;;;;;;6086776;23;20454;-82
2024/01/03 03:15:20;;;;;;;1.60;1.10;;;11.00;98.20;;;;;;6108725;23;20418;-82
2024/01/03 03:21:04;;;;;;;1.57;1.10;;;11.00;98.20;;;;;;5986728;23;20458;-84
2024/01/03 03:23:42;;;;;;;1.60;1.17;;;11.00;98.20;;;;;;6098174;23;20454;-83
2024/01/03 03:26:14;;;;;;;1.57;1.10;;;11.00;98.20;;;;;;6093257;23;20441;-83
2024/01/03 03:29:37;;;;;;;1.57;1.10;;;11.00;98.20;;;;;;6108367;23;20423;-84
2024/01/03 03:32:35;;;;;;;1.57;1.10;;;10.90;98.20;;;;;;6081568;23;20478;-82
2024/01/03 03:35:05;;;;;;;1.60;1.10;;;10.90;98.20;;;;;;6108818;23;20517;-81
2024/01/03 03:37:31;;;;;;;1.60;1.10;;;10.90;98.20;;;;;;6084725;23;20542;-84
2024/01/03 03:40:01;;;;;;;1.57;1.10;;;10.80;98.20;;;;;;6109822;23;20513;-84
2024/01/03 03:42:34;;;;;;;1.57;1.10;;;10.80;98.20;;;;;;6083916;23;20450;-85
2024/01/03 03:45:13;;;;;;;1.57;1.10;;;10.80;98.20;;;;;;6099617;23;20403;-84
2024/01/03 03:47:46;;;;;;;1.60;1.10;;;10.70;98.20;;;;;;6085597;23;20843;-82
2024/01/03 03:50:19;;;;;;;1.50;1.10;;;10.70;98.20;;;;;;6110223;23;20403;-84
2024/01/03 03:53:04;;;;;;;1.53;1.10;;;10.70;98.20;;;;;;6083134;23;20454;-82
2024/01/03 03:55:31;;;;;;;1.50;1.00;;;10.70;98.20;;;;;;6109399;23;20426;-82
2024/01/03 03:57:58;;;;;;;1.60;1.17;;;10.70;98.20;;;;;;6084643;23;20474;-83
2024/01/03 04:00:27;;;;;;;1.60;1.10;;;10.70;98.20;;;;;;6109743;23;20558;-85
2024/01/03 04:03:13;;;;;;;1.57;1.10;;;10.70;98.20;;;;;;6084606;23;20539;-84
2024/01/03 04:06:15;;;;;;;1.60;1.30;;;10.70;98.20;;;;;;6107755;23;20426;-81
2024/01/03 04:08:54;;;;;;;1.60;1.10;;;10.70;98.20;;;;;;6030882;23;20449;-85
2024/01/03 04:11:46;;;;;;;1.57;1.10;;;10.70;98.20;;;;;;6071876;23;21220;-84
2024/01/03 04:14:13;;;;;;;1.60;1.10;;;10.70;98.20;;;;;;6078585;23;20791;-81
2024/01/03 04:16:50;;;;;;;1.60;1.20;;;10.70;98.20;;;;;;6083518;23;20454;-84
2024/01/03 04:19:31;;;;;;;1.57;1.03;;;10.70;98.20;;;;;;6107845;23;21082;-83
2024/01/03 04:25:08;;;;;;;1.50;1.00;;;10.70;98.20;;;;;;6071468;23;20442;-83
2024/01/03 04:27:35;;;;;;;1.60;1.17;;;10.70;98.20;;;;;;6083722;23;20938;-82
2024/01/03 04:30:01;;;;;;;1.53;1.10;;;10.80;98.20;;;;;;6097639;23;20423;-82
2024/01/03 04:32:39;;;;;;;1.57;1.10;;;10.80;98.20;;;;;;6082667;23;20451;-84
2024/01/03 04:35:39;;;;;;;1.53;1.07;;;10.70;98.20;;;;;;6109404;23;20462;-84
2024/01/03 04:38:18;;;;;;;1.60;1.10;;;10.70;98.20;;;;;;6075789;23;20615;-84
2024/01/03 04:40:53;;;;;;;1.60;1.10;;;10.70;98.20;;;;;;6079928;23;20791;-84
2024/01/03 04:43:27;;;;;;;1.60;1.10;;;10.80;98.20;;;;;;6029129;23;20523;-84
2024/01/03 04:45:54;;;;;;;1.60;1.20;;;10.80;98.20;;;;;;6065450;23;20418;-84
2024/01/03 04:48:28;;;;;;;1.50;1.10;;;10.80;98.20;;;;;;6100678;23;20497;-85
2024/01/03 04:50:58;;;;;;;1.60;1.10;;;10.80;98.20;;;;;;6087216;23;20405;-84
2024/01/03 04:53:28;;;;;;;1.60;1.10;;;10.80;98.20;;;;;;6107328;23;20790;-84
2024/01/03 04:55:54;;;;;;;1.60;1.10;;;10.80;98.20;;;;;;6096293;23;20482;-81
2024/01/03 04:58:21;;;;;;;1.57;1.10;;;10.80;98.20;;;;;;6097103;23;20504;-81
2024/01/03 05:00:48;;;;;;;1.50;1.00;;;10.80;98.20;;;;;;6084624;23;20446;-75
2024/01/03 05:03:16;;;;;;;1.53;1.10;;;10.70;98.20;;;;;;6091828;23;20453;-80
2024/01/03 05:05:43;;;;;;;1.57;1.10;;;10.60;98.20;;;;;;6094385;23;20419;-81
2024/01/03 05:08:11;;;;;;;1.60;1.10;;;10.60;98.20;;;;;;6080370;23;20487;-84
2024/01/03 05:10:37;;;;;;;1.57;1.10;;;10.50;98.20;;;;;;6096372;23;20479;-80
2024/01/03 05:13:04;;;;;;;1.60;1.10;;;10.50;98.20;;;;;;6078695;23;20461;-84
2024/01/03 05:15:31;;;;;;;1.50;1.10;;;10.40;98.20;;;;;;6096809;23;20465;-80
2024/01/03 05:17:58;;;;;;;1.57;1.10;;;10.40;98.20;;;;;;6081267;23;20537;-82
2024/01/03 05:20:25;;;;;;;1.57;1.10;;;10.40;98.20;;;;;;6097639;23;20474;-83
2024/01/03 05:22:51;;;;;;;1.60;1.03;;;10.30;98.20;;;;;;6080404;23;20859;-81
2024/01/03 05:25:19;;;;;;;1.50;1.10;;;10.30;98.20;;;;;;6096608;23;20980;-83
2024/01/03 05:27:46;;;;;;;1.53;1.00;;;10.30;98.20;;;;;;6081189;23;20450;-81
2024/01/03 05:30:14;;;;;;;1.60;1.00;;;10.20;98.20;;;;;;6096586;23;20502;-82
2024/01/03 05:32:50;;;;;;;1.53;1.10;;;10.20;98.20;;;;;;6080921;23;20454;-81
2024/01/03 05:35:17;;;;;;;1.53;1.10;;;10.20;98.20;;;;;;6098694;23;20803;-81
2024/01/03 05:37:44;;;;;;;1.57;1.10;;;10.20;98.20;;;;;;6083980;23;20982;-80
2024/01/03 05:40:11;;;;;;;1.60;1.10;;;10.20;98.20;;;;;;6097630;23;20561;-83
2024/01/03 05:42:39;;;;;;;1.60;1.10;;;10.20;98.20;;;;;;6085586;23;20481;-83
2024/01/03 05:45:07;;;;;;;1.60;1.10;;;10.20;98.20;;;;;;6110099;23;20437;-84
2024/01/03 05:47:45;;;;;;;1.60;1.20;;;10.20;98.20;;;;;;6086377;23;20454;-84
2024/01/03 05:50:12;;;;;;;1.60;1.10;;;10.10;98.20;;;;;;6099074;23;20438;-82
2024/01/03 05:52:41;;;;;;;1.57;1.10;;;10.10;98.20;;;;;;6083223;23;21053;-84
2024/01/03 05:55:08;;;;;;;1.60;1.30;;;10.20;98.20;;;;;;6096639;23;20449;-83
2024/01/03 05:57:48;;;;;;;1.57;1.10;;;10.20;98.20;;;;;;6082091;23;20525;-79
2024/01/03 06:00:16;;;;;;;1.53;1.10;;;10.20;98.20;;;;;;6096370;23;20430;-83
2024/01/03 06:02:43;;;;;;;1.57;1.10;;;10.20;98.20;;;;;;6079257;23;20525;-82
2024/01/03 06:05:12;;;;;;;1.60;1.10;;;10.20;98.20;;;;;;6097451;23;20513;-83
2024/01/03 06:07:39;;;;;;;1.60;1.00;;;10.20;98.20;;;;;;6083457;23;20450;-83
2024/01/03 06:10:06;;;;;;;1.57;1.10;;;10.20;98.20;;;;;;6107485;23;20629;-83
2024/01/03 06:12:34;;;;;;;1.53;1.10;;;10.20;98.20;;;;;;6084652;23;20478;-83
2024/01/03 06:15:03;;;;;;;1.57;1.07;;;10.20;98.20;;;;;;6099628;23;20422;-81
2024/01/03 06:17:30;;;;;;;1.57;1.10;;;10.20;98.20;;;;;;6083649;23;20506;-82
2024/01/03 06:19:56;;;;;;;1.57;1.00;;;10.10;98.20;;;;;;6099999;23;20494;-82
2024/01/03 06:22:26;;;;;;;1.60;1.10;;;10.10;98.20;;;;;;6085111;23;20458;-80
2024/01/03 06:24:53;;;;;;;1.60;1.10;;;10.10;98.20;;;;;;6098282;23;20442;-82
2024/01/03 06:27:20;;;;;;;1.60;1.10;;;10.10;98.20;;;;;;6083615;23;20454;-81
2024/01/03 06:29:47;;;;;;;1.57;1.10;;;10.10;98.20;;;;;;6098633;23;20422;-83
2024/01/03 06:32:15;;;;;;;1.60;1.10;;;10.10;98.20;;;;;;6084663;23;20449;-78
2024/01/03 06:34:42;;;;;;;1.57;1.10;;;10.10;98.20;;;;;;6078378;23;20840;-78
2024/01/03 06:40:10;;;;;;;1.57;1.03;;;10.20;98.20;;;;;;6065680;23;20487;-80
2024/01/03 06:42:37;;;;;;;1.60;1.10;;;10.20;98.20;;;;;;6084815;23;20968;-80
2024/01/03 06:45:05;;;;;;;1.53;1.10;;;10.20;98.20;;;;;;6067773;23;20425;-80
2024/01/03 06:47:33;;;;;;;1.60;1.20;;;10.20;98.20;;;;;;6073189;23;20490;-80
2024/01/03 06:50:00;;;;;;;1.53;1.10;;;10.20;98.20;;;;;;6070599;23;20420;-80
2024/01/03 06:55:20;;;;;;;1.57;1.00;;;10.30;98.20;;;;;;6076737;23;20506;-80
2024/01/03 06:57:48;;;;;;;1.57;1.10;;;10.30;98.20;;;;;;6076918;23;20454;-80
2024/01/03 07:00:16;;;;;;;1.60;1.10;;;10.30;98.20;;;;;;6068138;23;20490;-80
2024/01/03 07:02:44;;;;;;;1.60;1.10;;;10.30;98.20;;;;;;6078150;23;20621;-80
2024/01/03 07:05:11;;;;;;;1.60;1.10;;;10.30;98.20;;;;;;6069038;23;20431;-80
2024/01/03 07:07:38;;;;;;;1.53;1.10;;;10.30;98.20;;;;;;6075418;23;20454;-80
2024/01/03 07:10:05;;;;;;;1.57;1.03;;;10.30;98.20;;;;;;6070985;23;20420;-79
2024/01/03 07:12:32;;;;;;;1.60;1.07;;;10.40;98.20;;;;;;6072997;23;20862;-80
2024/01/03 07:14:59;;;;;;;1.60;1.10;;;10.40;98.20;;;;;;6081175;23;20444;-78
2024/01/03 07:17:26;;;;;;;1.60;1.20;;;10.40;98.20;;;;;;6072793;23;20509;-80
2024/01/03 07:19:54;;;;;;;1.60;1.10;;;10.40;98.20;;;;;;6071084;23;20425;-80
2024/01/03 07:22:21;;;;;;;1.57;1.10;;;10.40;98.20;;;;;;6073643;23;20919;-81
2024/01/03 07:24:48;;;;;;;1.57;1.10;;;10.40;98.20;;;;;;6073120;23;20424;-79
2024/01/03 07:27:15;;;;;;;3.77;3.47;;;10.50;98.20;;;;;;6067773;23;20454;-81
2024/01/03 07:29:42;;;;;;;1.53;1.10;;;10.50;98.20;;;;;;6084438;23;20423;-80
2024/01/03 07:32:09;;;;;;;1.50;1.00;;;10.50;98.20;;;;;;6072061;23;20482;-80
2024/01/03 07:34:35;;;;;;;1.60;1.10;;;10.60;98.20;;;;;;6078285;23;20498;-81
2024/01/03 07:37:04;;;;;;;1.60;1.10;;;10.60;98.20;;;;;;6068538;23;20474;-81
2024/01/03 07:39:31;;;;;;;1.53;1.10;;;10.60;98.20;;;;;;6058361;23;20436;-79
2024/01/03 07:44:45;;;;;;;1.60;1.10;;;10.70;98.20;;;;;;6047350;23;20479;-80
2024/01/03 07:47:17;;;;;;;1.53;1.10;;;10.70;98.20;;;;;;6040344;23;20475;-79
2024/01/03 07:49:45;;;;;;;1.60;1.43;;;10.70;98.20;;;;;;6042243;23;20420;-80
2024/01/03 07:52:13;;;;;;;1.50;1.00;;;10.70;98.20;;;;;;6042702;23;20459;-81
2024/01/03 07:54:39;;;;;;;2.40;2.20;;;10.70;98.20;;;;;;6043708;23;20511;-80
2024/01/03 07:57:06;;;;;;;16.43;2.40;;;10.70;98.20;;;;;;6039896;23;20875;-79
2024/01/03 07:59:33;;;;;;;1.57;1.10;;;10.70;98.20;;;;;;6053639;23;20427;-80
2024/01/03 08:02:00;;;;;;;1.57;1.10;;;10.70;98.20;;;;;;6037819;23;20789;-80
2024/01/03 08:04:27;;;;;;;1.57;1.10;;;10.70;98.20;;;;;;6055842;23;20455;-80
2024/01/03 08:06:54;;;;;;;1.60;1.10;;;10.60;98.20;;;;;;6036579;23;20452;-81
2024/01/03 08:09:22;;;;;;;1.60;1.10;;;10.60;98.20;;;;;;6048268;23;20499;-80
2024/01/03 08:11:49;;;;;;;1.53;1.07;;;10.60;98.20;;;;;;6035547;23;20864;-79
2024/01/03 08:14:16;;;;;;;1.53;1.10;;;10.60;98.20;;;;;;6048235;23;21149;-78
2024/01/03 08:16:43;;;;;;;1.50;1.10;;;10.60;98.20;;;;;;6034862;23;20452;-80
2024/01/03 08:19:10;;;;;;;1.50;1.10;;;10.60;98.20;;;;;;6050683;23;20433;-79
2024/01/03 08:21:36;;;;;;;1.60;1.10;;;10.60;98.20;;;;;;6054039;23;20486;-80
2024/01/03 08:24:03;;;;;;;1.57;1.10;;;10.60;98.20;;;;;;6055801;23;20799;-81
2024/01/03 08:26:38;;;;;;;1.57;1.10;;;10.60;98.20;;;;;;6041928;23;20460;-82
2024/01/03 08:32:26;;;;;;;1.57;1.00;;;10.60;98.20;;;;;;6100731;23;20494;-81
2024/01/03 08:34:53;;;;;;;1.57;1.00;;;10.50;98.20;;;;;;6105809;23;21031;-81
2024/01/03 08:37:20;;;;;;;1.60;1.10;;;10.60;98.20;;;;;;6090203;23;20514;-81
2024/01/03 08:39:46;;;;;;;1.60;1.10;;;10.50;98.20;;;;;;6101259;23;20509;-81
2024/01/03 08:42:15;;;;;;;1.53;1.03;;;10.60;98.20;;;;;;6084547;23;20454;-81
2024/01/03 08:44:41;;;;;;;1.53;1.10;;;10.50;98.20;;;;;;6099195;23;20486;-81
2024/01/03 08:47:08;;;;;;;1.57;1.10;;;10.50;98.20;;;;;;6088150;23;20450;-81
2024/01/03 08:55:24;;;;;;;1.60;1.10;;;10.60;98.20;;;;;;6081591;23;20423;-79
2024/01/03 08:57:56;;;;;;;1.60;1.10;;;10.70;98.20;;;;;;6057375;23;20461;-80
2024/01/03 09:00:27;;;;;;;1.53;1.00;;;10.70;98.20;;;;;;6079533;23;20459;-81
2024/01/03 09:02:57;;;;;;;1.50;1.10;;;10.70;98.20;;;;;;6062743;23;20452;-81
2024/01/03 09:05:23;;;;;;;1.53;1.10;;;10.70;98.20;;;;;;6075019;23;20898;-81
2024/01/03 09:07:50;;;;;;;1.50;1.00;;;10.80;98.20;;;;;;6058715;23;20451;-83
2024/01/03 09:10:17;;;;;;;1.60;1.00;;;10.80;98.20;;;;;;6085202;23;20458;-80
2024/01/03 09:15:19;;;;;;;1.57;1.10;;;10.90;98.20;;;;;;6108387;23;20419;-80
2024/01/03 09:17:46;;;;;;;1.60;1.10;;;11.00;98.20;;;;;;6096498;23;20989;-82
2024/01/03 09:20:13;;;;;;;1.60;1.10;;;11.00;98.20;;;;;;6103567;23;20442;-80
2024/01/03 09:22:40;;;;;;;1.60;1.10;;;11.10;98.20;;;;;;6073130;23;20475;-80
2024/01/03 09:25:08;;;;;;;1.57;1.10;;;11.20;98.20;;;;;;6077604;23;20420;-81
2024/01/03 09:27:35;;;;;;;1.60;1.10;;;11.20;98.20;;;;;;6053466;23;20455;-81
2024/01/03 09:30:03;;;;;;;1.60;1.10;;;11.30;98.20;;;;;;6069953;23;20508;-80
2024/01/03 09:32:31;;;;;;;1.60;1.10;;;11.30;98.20;;;;;;6059197;23;20455;-81
2024/01/03 09:34:58;;;;;;;1.60;1.10;;;11.30;98.20;;;;;;6069441;23;20510;-81
2024/01/03 09:37:24;;;;;;;1.57;1.10;;;11.30;98.20;;;;;;6059446;23;20462;-81
2024/01/03 09:39:51;;;;;;;1.57;1.00;;;11.40;98.20;;;;;;6070746;23;20416;-81
2024/01/03 09:42:18;;;;;;;1.53;1.00;;;11.40;98.20;;;;;;6055191;23;20594;-80
2024/01/03 09:44:45;;;;;;;1.53;1.00;;;11.40;98.20;;;;;;6082613;23;20431;-80
2024/01/03 09:47:13;;;;;;;1.60;1.10;;;11.40;98.20;;;;;;6069438;23;20526;-80
2024/01/03 09:49:42;;;;;;;1.57;1.10;;;11.40;98.20;;;;;;6077164;23;20426;-79
2024/01/03 09:52:09;;;;;;;1.60;1.10;;;11.40;98.20;;;;;;6063409;23;20515;-80
2024/01/03 09:54:36;;;;;;;1.60;1.10;;;11.40;98.20;;;;;;6086356;23;20428;-81
2024/01/03 09:57:03;;;;;;;1.60;1.17;;;11.50;98.20;;;;;;6060946;23;21006;-80
2024/01/03 09:59:29;;;;;;;1.60;1.10;;;11.50;98.20;;;;;;6075550;23;21051;-80
2024/01/03 10:01:58;;;;;;;1.57;1.10;;;11.60;98.20;;;;;;6063617;23;20471;-81
2024/01/03 10:04:25;;;;;;;1.60;1.17;;;11.60;98.20;;;;;;6073970;23;20423;-81
2024/01/03 10:06:54;;;;;;;1.50;1.10;;;11.50;98.20;;;;;;6059989;23;20457;-82
2024/01/03 10:09:22;;;;;;;1.60;1.20;;;11.50;98.20;;;;;;6068268;23;20829;-79
2024/01/03 10:11:52;;;;;;;1.60;1.10;;;11.40;98.20;;;;;;6059182;23;20447;-80
2024/01/03 10:17:10;;;;;;;1.60;1.10;;;11.00;98.20;;;;;;6054082;23;20443;-80
2024/01/03 10:19:48;;;;;;;1.57;1.10;;;10.90;98.20;;;;;;6070624;23;20411;-80
2024/01/03 10:22:20;;;;;;;1.53;1.10;;;10.70;98.20;;;;;;6060577;23;20491;-80
2024/01/03 10:24:47;;;;;;;1.57;1.00;;;10.70;98.20;;;;;;6067926;23;20410;-80
2024/01/03 10:27:14;;;;;;;1.57;1.10;;;10.60;98.20;;;;;;6049549;23;20538;-80
2024/01/03 10:29:41;;;;;;;1.53;1.10;;;10.60;98.20;;;;;;6072969;23;20544;-81
2024/01/03 10:32:10;;;;;;;1.60;1.20;;;10.60;98.20;;;;;;6049660;23;20957;-79
2024/01/03 10:34:37;;;;;;;1.57;1.10;;;10.50;98.20;;;;;;6063510;23;20420;-81
2024/01/03 10:37:05;;;;;;;1.60;1.10;;;10.50;98.20;;;;;;6040887;23;20831;-79
2024/01/03 10:39:35;;;;;;;1.50;1.00;;;10.50;98.20;;;;;;6049285;23;20423;-82
2024/01/03 10:42:05;;;;;;;1.60;1.10;;;10.50;98.20;;;;;;6037417;23;20523;-79
2024/01/03 10:44:35;;;;;;;1.57;1.10;;;10.60;98.20;;;;;;6047771;23;20488;-81
2024/01/03 10:47:02;;;;;;;1.57;1.10;;;10.60;98.20;;;;;;6026147;23;20455;-79
2024/01/03 10:49:29;;;;;;;1.53;1.10;;;10.70;98.20;;;;;;6046234;23;20799;-79
2024/01/03 10:52:03;;;;;;;1.53;1.10;;;10.70;98.20;;;;;;6018029;23;20952;-79
2024/01/03 10:54:40;;;;;;;1.57;1.00;;;10.80;98.20;;;;;;6033780;23;20408;-79
2024/01/03 10:57:08;;;;;;;1.50;1.10;;;10.90;98.20;;;;;;6019680;23;20816;-79
2024/01/03 10:59:40;;;;;;;2.23;2.03;;;11.00;98.20;;;;;;6034775;23;20921;-79
2024/01/03 11:02:15;;;;;;;1.57;1.10;;;11.10;98.20;;;;;;6020567;23;20936;-79
2024/01/03 11:04:54;;;;;;;1.57;1.10;;;11.10;98.20;;;;;;6034400;23;20435;-78
2024/01/03 11:07:29;;;;;;;1.90;1.70;;;11.20;98.20;;;;;;6033080;23;20451;-79
2024/01/03 11:09:57;;;;;;;1.60;1.10;;;11.30;98.20;;;;;;6067130;23;20426;-80
2024/01/03 11:12:28;;;;;;;1.60;1.07;;;11.40;98.20;;;;;;6051303;23;20523;-79
2024/01/03 11:14:55;;;;;;;1.57;1.10;;;11.50;98.20;;;;;;6075873;23;20435;-80
2024/01/03 11:17:33;;;;;;;1.57;1.00;;;11.50;98.20;;;;;;6052496;23;20534;-78
2024/01/03 11:20:07;;;;;;;1.60;1.10;;;11.60;98.20;;;;;;6068458;23;20462;-80
2024/01/03 11:22:55;;;;;;;1.60;1.00;;;11.60;98.20;;;;;;6054953;23;20528;-80
2024/01/03 11:25:51;;;;;;;1.60;1.10;;;11.60;98.20;;;;;;6071288;23;20585;-79
2024/01/03 11:28:30;;;;;;;1.57;1.03;;;11.60;98.20;;;;;;6029987;23;20546;-79
2024/01/03 11:30:58;;;;;;;1.60;1.10;;;11.60;98.20;;;;;;6054969;23;20814;-82
2024/01/03 11:33:27;;;;;;;1.60;1.03;;;11.60;98.20;;;;;;6068947;23;20443;-81
2024/01/03 11:35:55;;;;;;;1.60;1.10;;;11.50;98.20;;;;;;6053999;23;20419;-79
2024/01/03 11:38:41;;;;;;;1.57;1.00;;;11.40;98.20;;;;;;6078286;23;20924;-80
2024/01/03 11:41:09;;;;;;;1.60;1.07;;;11.40;98.20;;;;;;6065960;23;20480;-79
2024/01/03 11:43:36;;;;;;;1.60;1.10;;;11.40;98.20;;;;;;6076345;23;20455;-81
2024/01/03 11:46:09;;;;;;;1.60;1.10;;;11.40;98.20;;;;;;6072718;23;20765;-82
2024/01/03 11:48:37;;;;;;;1.57;1.00;;;11.40;98.20;;;;;;6069732;23;20424;-81
2024/01/03 11:51:04;;;;;;;1.60;1.10;;;11.40;98.20;;;;;;6057303;23;20498;-81
2024/01/03 11:53:31;;;;;;;1.53;1.00;;;11.40;98.20;;;;;;6069251;23;20443;-80
2024/01/03 11:55:58;;;;;;;1.57;1.10;;;11.50;98.20;;;;;;6057755;23;20434;-81
2024/01/03 11:58:28;;;;;;;1.50;1.00;;;11.50;98.20;;;;;;6073500;23;20461;-81
2024/01/03 12:01:06;;;;;;;1.60;1.10;;;11.60;98.20;;;;;;6075039;23;20425;-81
2024/01/03 12:03:35;;;;;;;1.57;1.10;;;11.60;98.20;;;;;;6071663;23;20456;-81
2024/01/03 12:06:02;;;;;;;1.60;1.10;;;11.60;98.20;;;;;;6053489;23;20593;-81
2024/01/03 12:08:29;;;;;;;1.57;1.10;;;11.60;98.20;;;;;;6067177;23;20424;-80
2024/01/03 12:10:56;;;;;;;1.57;1.00;;;11.60;98.20;;;;;;6054945;23;20423;-81
2024/01/03 12:13:23;;;;;;;1.57;1.00;;;11.70;98.20;;;;;;6068629;23;20451;-80
2024/01/03 12:16:00;;;;;;;2.30;2.10;;;11.80;98.20;;;;;;6056425;23;20412;-79
2024/01/03 12:18:27;;;;;;;1.57;1.10;;;11.90;98.20;;;;;;6062014;23;20551;-81
2024/01/03 12:20:54;;;;;;;1.57;1.00;;;12.00;98.20;;;;;;6029146;23;20794;-80
2024/01/03 12:23:24;;;;;;;1.50;1.00;;;12.00;98.20;;;;;;6063206;23;21164;-80
2024/01/03 12:25:51;;;;;;;1.50;1.00;;;12.10;98.20;;;;;;6027549;23;20435;-81
2024/01/03 12:28:20;;;;;;;1.57;1.03;;;12.20;98.20;;;;;;6069827;23;20421;-80
2024/01/03 12:30:49;;;;;;;1.60;1.00;;;12.20;98.20;;;;;;6032551;23;20484;-80
2024/01/03 12:33:18;;;;;;;1.60;1.00;;;12.30;98.20;;;;;;6082912;23;20448;-81
2024/01/03 12:35:53;;;;;;;1.60;1.00;;;12.30;98.20;;;;;;6040716;23;20500;-80
2024/01/03 12:38:22;;;;;;;1.50;1.00;;;12.30;98.20;;;;;;6025313;23;20435;-80
2024/01/03 12:40:49;;;;;;;1.60;1.00;;;12.30;98.20;;;;;;6026876;23;20424;-79
2024/01/03 12:43:16;;;;;;;1.53;1.00;;;12.30;98.20;;;;;;6059958;23;20456;-80
2024/01/03 12:45:43;;;;;;;1.53;1.00;;;12.30;98.20;;;;;;6037587;23;20503;-81
2024/01/03 12:48:10;;;;;;;1.60;1.00;;;12.20;98.20;;;;;;6073113;23;20454;-79
2024/01/03 12:50:40;;;;;;;1.57;1.10;;;12.20;98.20;;;;;;6068281;23;20420;-80
2024/01/03 12:53:06;;;;;;;1.57;1.00;;;12.20;98.20;;;;;;6077791;23;20474;-80
2024/01/03 12:55:33;;;;;;;1.60;1.00;;;12.20;98.20;;;;;;6070225;23;20936;-80
2024/01/03 12:58:01;;;;;;;1.53;1.00;;;12.20;98.20;;;;;;6077970;23;20461;-81
2024/01/03 13:00:28;;;;;;;1.57;1.00;;;12.20;98.20;;;;;;6065812;23;20428;-80
2024/01/03 13:02:54;;;;;;;1.57;1.00;;;12.20;98.20;;;;;;6075966;23;20457;-81
2024/01/03 13:05:21;;;;;;;1.53;1.00;;;12.30;98.20;;;;;;6070468;23;20474;-80
2024/01/03 13:07:51;;;;;;;1.50;1.00;;;12.50;98.20;;;;;;6051300;23;20451;-81
2024/01/03 13:10:17;;;;;;;1.60;1.00;;;12.60;98.20;;;;;;6038692;23;20988;-80
2024/01/03 13:12:44;;;;;;;1.60;1.00;;;12.80;98.20;;;;;;6044861;23;20475;-81
2024/01/03 13:15:11;;;;;;;1.60;1.00;;;12.80;98.20;;;;;;6066169;23;20438;-80
2024/01/03 13:17:38;;;;;;;1.53;1.00;;;12.70;98.20;;;;;;6052895;23;20525;-82
2024/01/03 13:20:08;;;;;;;1.60;1.00;;;12.70;98.20;;;;;;6068057;23;20451;-81
2024/01/03 13:22:35;;;;;;;1.60;1.00;;;12.70;98.20;;;;;;6052210;23;20482;-80
2024/01/03 13:25:03;;;;;;;1.60;1.00;;;12.60;98.20;;;;;;6066780;23;20794;-81
2024/01/03 13:27:30;;;;;;;1.60;1.00;;;12.60;98.20;;;;;;6051409;23;20455;-81
2024/01/03 13:29:57;;;;;;;1.53;1.00;;;12.50;98.20;;;;;;6067564;23;20538;-81
2024/01/03 13:32:24;;;;;;;1.60;1.00;;;12.50;98.20;;;;;;6054418;23;20455;-81
2024/01/03 13:34:50;;;;;;;1.60;1.10;;;12.40;98.20;;;;;;6065167;23;20892;-80
2024/01/03 13:37:17;;;;;;;1.60;1.00;;;12.40;98.20;;;;;;6050390;23;20451;-80
2024/01/03 13:39:43;;;;;;;1.53;1.10;;;12.40;98.20;;;;;;6065277;23;20263;-80
2024/01/03 13:42:12;;;;;;;1.57;1.10;;;12.40;98.20;;;;;;6051118;23;20451;-80
2024/01/03 13:44:39;;;;;;;1.60;1.00;;;12.40;98.20;;;;;;6066344;23;20519;-81
2024/01/03 13:47:06;;;;;;;1.60;1.10;;;12.40;98.20;;;;;;6051024;23;20451;-81
2024/01/03 13:49:32;;;;;;;1.60;1.10;;;12.40;98.20;;;;;;6067685;23;20420;-81
2024/01/03 13:52:00;;;;;;;1.53;1.00;;;12.40;98.20;;;;;;6053132;23;20455;-80
2024/01/03 13:54:26;;;;;;;1.57;1.00;;;12.40;98.20;;;;;;6065261;23;20451;-81
2024/01/03 13:56:53;;;;;;;1.60;1.03;;;12.30;98.20;;;;;;6050821;23;20483;-81
2024/01/03 13:59:21;;;;;;;1.57;1.00;;;12.30;98.20;;;;;;6065736;23;20788;-81
2024/01/03 14:01:49;;;;;;;1.60;1.10;;;12.30;98.20;;;;;;6050608;23;20474;-80